createdAt,value
2023-03-16T00:01:28.632Z,5.60
2023-03-16T00:03:56.563Z,5.50
2023-03-16T00:06:25.772Z,5.50
2023-03-16T00:08:58.833Z,5.60
2023-03-16T00:11:28.355Z,5.60
2023-03-16T00:13:56.298Z,5.60
2023-03-16T00:16:25.153Z,5.60
2023-03-16T00:18:53.408Z,5.50
2023-03-16T00:21:21.317Z,5.50
2023-03-16T00:23:49.216Z,5.50
2023-03-16T00:26:17.116Z,5.50
2023-03-16T00:28:46.404Z,5.50
2023-03-16T00:31:15.948Z,5.60
2023-03-16T00:33:43.930Z,5.60
2023-03-16T00:36:12.203Z,5.60
2023-03-16T00:38:45.387Z,5.60
2023-03-16T00:41:15.393Z,5.60
2023-03-16T00:43:45.754Z,5.60
2023-03-16T00:46:15.898Z,5.60
2023-03-16T00:48:45.767Z,5.60
2023-03-16T00:51:15.402Z,5.60
2023-03-16T00:53:44.794Z,5.60
2023-03-16T00:56:13.702Z,5.60
2023-03-16T00:58:43.445Z,5.60
2023-03-16T01:01:15.035Z,5.60
2023-03-16T01:03:43.589Z,5.60
2023-03-16T01:06:15.076Z,5.60
2023-03-16T01:08:43.147Z,5.60
2023-03-16T01:11:13.292Z,5.60
2023-03-16T01:13:41.491Z,5.60
2023-03-16T01:16:10.721Z,5.60
2023-03-16T01:18:40.214Z,5.60
2023-03-16T01:21:09.920Z,5.60
2023-03-16T01:23:38.206Z,5.60
2023-03-16T01:26:08.333Z,5.60
2023-03-16T01:28:36.319Z,5.60
2023-03-16T01:31:07.807Z,5.60
2023-03-16T01:33:36.358Z,5.60
2023-03-16T01:36:08.336Z,5.60
2023-03-16T01:38:36.501Z,5.60
2023-03-16T01:41:04.994Z,5.60
2023-03-16T01:43:34.705Z,5.60
2023-03-16T01:46:19.104Z,5.60
2023-03-16T01:48:56.386Z,5.60
2023-03-16T01:51:30.514Z,5.60
2023-03-16T01:54:04.326Z,5.70
2023-03-16T01:56:38.263Z,5.70
2023-03-16T01:59:10.903Z,5.70
2023-03-16T02:01:39.120Z,5.70
2023-03-16T02:04:18.734Z,5.70
2023-03-16T02:06:48.780Z,5.70
2023-03-16T02:09:19.349Z,5.70
2023-03-16T02:11:48.402Z,5.70
2023-03-16T02:14:16.334Z,5.70
2023-03-16T02:16:44.884Z,5.70
2023-03-16T02:19:17.797Z,5.70
2023-03-16T02:21:54.546Z,5.70
2023-03-16T02:24:22.785Z,5.70
2023-03-16T02:26:55.893Z,5.60
2023-03-16T02:29:46.012Z,5.60
2023-03-16T02:32:15.322Z,5.60
2023-03-16T02:34:44.037Z,5.60
2023-03-16T02:37:12.998Z,5.70
2023-03-16T02:39:44.064Z,5.70
2023-03-16T02:42:16.502Z,5.70
2023-03-16T02:44:49.525Z,5.70
2023-03-16T02:47:25.716Z,5.60
2023-03-16T02:49:53.635Z,5.60
2023-03-16T02:52:21.494Z,5.60
2023-03-16T02:54:49.510Z,5.60
2023-03-16T02:57:17.478Z,5.60
2023-03-16T02:59:46.756Z,5.70
2023-03-16T03:02:14.643Z,5.60
2023-03-16T03:04:46.153Z,5.60
2023-03-16T03:07:14.764Z,5.60
2023-03-16T03:09:43.164Z,5.60
2023-03-16T03:12:11.533Z,5.60
2023-03-16T03:14:39.875Z,5.60
2023-03-16T03:17:13.309Z,5.60
2023-03-16T03:19:41.493Z,5.60
2023-03-16T03:22:09.645Z,5.60
2023-03-16T03:24:37.700Z,5.60
2023-03-16T03:27:06.417Z,5.50
2023-03-16T03:29:35.354Z,5.50
2023-03-16T03:32:03.851Z,5.50
2023-03-16T03:34:33.633Z,5.50
2023-03-16T03:37:02.126Z,5.50
2023-03-16T03:39:30.231Z,5.50
2023-03-16T03:41:58.086Z,5.50
2023-03-16T03:44:26.925Z,5.50
2023-03-16T03:46:54.906Z,5.50
2023-03-16T03:49:22.908Z,5.50
2023-03-16T03:51:52.215Z,5.50
2023-03-16T03:54:20.158Z,5.50
2023-03-16T03:56:48.066Z,5.50
2023-03-16T03:59:15.939Z,5.50
2023-03-16T04:01:43.744Z,5.50
2023-03-16T04:04:11.800Z,5.40
2023-03-16T04:06:39.723Z,5.40
2023-03-16T04:09:09.925Z,5.40
2023-03-16T04:11:37.944Z,5.40
2023-03-16T04:14:06.786Z,5.40
2023-03-16T04:16:35.102Z,5.40
2023-03-16T04:19:03.105Z,5.50
2023-03-16T04:21:31.138Z,5.40
2023-03-16T04:23:59.066Z,5.40
2023-03-16T04:26:28.376Z,5.40
2023-03-16T04:28:56.336Z,5.40
2023-03-16T04:31:24.675Z,5.40
2023-03-16T04:33:54.591Z,5.40
2023-03-16T04:36:24.464Z,5.40
2023-03-16T04:38:52.698Z,5.40
2023-03-16T04:41:20.865Z,5.40
2023-03-16T04:43:50.092Z,5.40
2023-03-16T04:46:18.087Z,5.40
2023-03-16T04:48:46.049Z,5.40
2023-03-16T04:51:14.052Z,5.40
2023-03-16T04:53:42.001Z,5.40
2023-03-16T04:56:10.076Z,5.40
2023-03-16T04:58:37.934Z,5.40
2023-03-16T05:01:07.302Z,5.40
2023-03-16T05:03:35.548Z,5.40
2023-03-16T05:06:03.533Z,5.40
2023-03-16T05:08:31.502Z,5.50
2023-03-16T05:11:00.265Z,5.50
2023-03-16T05:13:28.279Z,5.50
2023-03-16T05:15:56.324Z,5.50
2023-03-16T05:18:25.780Z,5.50
2023-03-16T05:20:55.872Z,5.50
2023-03-16T05:23:24.380Z,5.50
2023-03-16T05:25:52.496Z,5.50
2023-03-16T05:28:20.453Z,5.50
2023-03-16T05:30:48.422Z,5.50
2023-03-16T05:33:16.326Z,5.50
2023-03-16T05:35:45.671Z,5.50
2023-03-16T05:38:15.814Z,5.50
2023-03-16T05:40:43.886Z,5.50
2023-03-16T05:43:11.967Z,5.50
2023-03-16T05:45:39.837Z,5.40
2023-03-16T05:48:08.031Z,5.40
2023-03-16T05:50:35.933Z,5.40
2023-03-16T05:53:05.211Z,5.40
2023-03-16T05:55:33.113Z,5.40
2023-03-16T05:58:02.247Z,5.40
2023-03-16T06:00:30.767Z,5.40
2023-03-16T06:02:58.789Z,5.40
2023-03-16T06:05:28.598Z,5.40
2023-03-16T06:07:56.539Z,5.40
2023-03-16T06:10:26.866Z,5.40
2023-03-16T06:12:55.073Z,5.40
2023-03-16T06:15:24.943Z,5.40
2023-03-16T06:17:52.884Z,5.40
2023-03-16T06:20:20.968Z,5.40
2023-03-16T06:22:48.973Z,5.40
2023-03-16T06:25:17.230Z,5.40
2023-03-16T06:27:46.616Z,5.40
2023-03-16T06:30:15.592Z,5.40
2023-03-16T06:32:45.318Z,5.40
2023-03-16T06:35:13.818Z,5.40
2023-03-16T06:37:41.773Z,5.40
2023-03-16T06:40:10.985Z,5.40
2023-03-16T06:42:38.882Z,5.40
2023-03-16T06:45:09.605Z,5.40
2023-03-16T06:47:37.498Z,5.50
2023-03-16T06:50:06.396Z,5.50
2023-03-16T06:52:34.363Z,5.50
2023-03-16T06:55:02.221Z,5.50
2023-03-16T06:57:30.133Z,5.50
2023-03-16T06:59:58.108Z,5.50
2023-03-16T07:02:27.418Z,5.50
2023-03-16T07:04:55.276Z,5.50
2023-03-16T07:07:24.419Z,5.50
2023-03-16T07:09:52.347Z,5.60
2023-03-16T07:12:20.296Z,5.60
2023-03-16T07:14:51.852Z,5.70
2023-03-16T07:17:21.647Z,5.70
2023-03-16T07:19:51.415Z,5.70
2023-03-16T07:22:19.345Z,5.70
2023-03-16T07:24:47.387Z,5.70
2023-03-16T07:27:15.360Z,5.80
2023-03-16T07:29:43.260Z,5.80
2023-03-16T07:32:11.587Z,5.80
2023-03-16T07:34:39.635Z,5.80
2023-03-16T07:37:09.238Z,5.80
2023-03-16T07:39:37.663Z,5.80
2023-03-16T07:42:05.787Z,5.80
2023-03-16T07:44:33.654Z,5.90
2023-03-16T07:47:01.809Z,5.90
2023-03-16T07:49:29.676Z,5.90
2023-03-16T07:51:57.572Z,5.90
2023-03-16T07:54:26.825Z,5.90
2023-03-16T07:56:54.771Z,5.90
2023-03-16T07:59:22.695Z,5.90
2023-03-16T08:01:50.636Z,5.90
2023-03-16T08:04:18.578Z,5.90
2023-03-16T08:06:46.493Z,5.90
2023-03-16T08:09:14.447Z,5.90
2023-03-16T08:11:43.748Z,5.90
2023-03-16T08:14:11.739Z,5.90
2023-03-16T08:16:39.678Z,5.90
2023-03-16T08:19:07.640Z,5.90
2023-03-16T08:21:48.757Z,6.00
2023-03-16T08:24:24.196Z,6.00
2023-03-16T08:26:53.620Z,6.10
2023-03-16T08:29:21.509Z,6.10
2023-03-16T08:31:49.514Z,6.20
2023-03-16T08:34:17.985Z,6.20
2023-03-16T08:36:46.056Z,6.20
2023-03-16T08:39:13.988Z,6.20
2023-03-16T08:41:42.857Z,6.30
2023-03-16T08:44:12.934Z,6.30
2023-03-16T08:46:42.326Z,6.30
2023-03-16T08:49:10.875Z,6.30
2023-03-16T08:51:39.191Z,6.30
2023-03-16T08:54:07.421Z,6.40
2023-03-16T08:56:35.439Z,6.40
2023-03-16T08:59:03.680Z,6.50
2023-03-16T09:01:34.100Z,6.50
2023-03-16T09:04:03.262Z,6.60
2023-03-16T09:06:32.194Z,6.60
2023-03-16T09:09:00.105Z,6.60
2023-03-16T09:11:30.553Z,6.70
2023-03-16T09:13:58.508Z,6.70
2023-03-16T09:16:26.722Z,6.70
2023-03-16T09:18:56.026Z,6.80
2023-03-16T09:21:23.923Z,6.80
2023-03-16T09:23:51.908Z,6.80
2023-03-16T09:26:20.716Z,6.90
2023-03-16T09:28:49.322Z,6.90
2023-03-16T09:31:19.740Z,7.00
2023-03-16T09:33:48.026Z,7.00
2023-03-16T09:36:17.668Z,7.00
2023-03-16T09:38:45.637Z,7.00
2023-03-16T09:41:30.462Z,7.10
2023-03-16T09:44:06.081Z,7.10
2023-03-16T09:46:38.562Z,7.10
2023-03-16T09:49:06.592Z,7.10
2023-03-16T09:51:41.220Z,7.10
2023-03-16T09:54:18.502Z,7.10
2023-03-16T09:56:47.702Z,7.10
2023-03-16T09:59:18.318Z,7.20
2023-03-16T10:02:01.781Z,7.20
2023-03-16T10:04:43.850Z,7.20
2023-03-16T10:07:26.529Z,7.30
2023-03-16T10:09:58.532Z,7.40
2023-03-16T10:12:31.765Z,7.50
2023-03-16T10:15:07.036Z,7.60
2023-03-16T10:17:40.113Z,7.60
2023-03-16T10:20:13.006Z,7.60
2023-03-16T10:22:45.842Z,7.70
2023-03-16T10:25:21.057Z,7.70
2023-03-16T10:27:49.144Z,7.80
2023-03-16T10:30:28.161Z,7.80
2023-03-16T10:32:57.531Z,7.90
2023-03-16T10:35:38.924Z,8.00
2023-03-16T10:38:10.398Z,8.00
2023-03-16T10:40:40.193Z,8.10
2023-03-16T10:43:10.168Z,8.20
2023-03-16T10:45:38.175Z,8.20
2023-03-16T10:48:14.071Z,8.30
2023-03-16T10:50:43.058Z,8.40
2023-03-16T10:53:19.333Z,8.50
2023-03-16T10:55:50.263Z,8.60
2023-03-16T10:58:26.682Z,8.60
2023-03-16T11:00:55.154Z,8.70
2023-03-16T11:03:27.496Z,8.80
2023-03-16T11:06:00.702Z,8.80
2023-03-16T11:08:33.945Z,8.90
2023-03-16T11:11:09.495Z,9.00
2023-03-16T11:13:38.971Z,9.00
2023-03-16T11:16:16.794Z,9.10
2023-03-16T11:18:48.334Z,9.10
2023-03-16T11:21:22.188Z,9.20
2023-03-16T11:23:56.097Z,9.20
2023-03-16T11:26:28.823Z,9.10
2023-03-16T11:29:03.631Z,9.20
2023-03-16T11:31:42.614Z,9.20
2023-03-16T11:34:16.122Z,9.20
2023-03-16T11:36:50.035Z,9.20
2023-03-16T11:39:32.902Z,9.30
2023-03-16T11:42:14.271Z,9.30
2023-03-16T11:44:50.611Z,9.30
2023-03-16T11:47:44.878Z,9.40
2023-03-16T11:50:17.352Z,9.40
2023-03-16T11:52:53.604Z,9.40
2023-03-16T11:55:32.285Z,9.40
2023-03-16T11:58:13.728Z,9.50
2023-03-16T12:00:53.460Z,9.50
2023-03-16T12:03:58.443Z,9.50
2023-03-16T12:06:40.443Z,9.60
2023-03-16T12:09:28.757Z,9.60
2023-03-16T12:12:04.824Z,9.70
2023-03-16T12:14:39.730Z,9.70
2023-03-16T12:17:14.676Z,9.80
2023-03-16T12:19:47.127Z,9.90
2023-03-16T12:22:19.831Z,10.00
2023-03-16T12:24:48.314Z,10.10
2023-03-16T12:27:22.544Z,10.20
2023-03-16T12:30:03.896Z,10.30
2023-03-16T12:32:42.625Z,10.40
2023-03-16T12:35:22.984Z,10.50
2023-03-16T12:38:01.694Z,10.40
2023-03-16T12:40:36.161Z,10.50
2023-03-16T12:43:19.986Z,10.50
2023-03-16T12:45:58.481Z,10.50
2023-03-16T12:48:31.102Z,10.50
2023-03-16T12:51:01.353Z,10.60
2023-03-16T12:53:39.248Z,10.60
2023-03-16T12:56:11.891Z,10.60
2023-03-16T12:58:45.681Z,10.70
2023-03-16T13:01:15.232Z,10.80
2023-03-16T13:03:43.950Z,10.80
2023-03-16T13:06:23.513Z,10.90
2023-03-16T13:08:56.805Z,11.00
2023-03-16T13:11:25.286Z,11.10
2023-03-16T13:14:08.724Z,11.20
2023-03-16T13:16:38.294Z,11.20
2023-03-16T13:19:27.270Z,11.30
2023-03-16T13:22:04.096Z,11.50
2023-03-16T13:24:39.843Z,11.50
2023-03-16T13:27:21.188Z,11.60
2023-03-16T13:29:57.320Z,11.60
2023-03-16T13:32:28.651Z,11.60
2023-03-16T13:34:59.763Z,11.70
2023-03-16T13:37:29.983Z,11.70
2023-03-16T13:40:01.794Z,11.70
2023-03-16T13:42:31.578Z,11.70
2023-03-16T13:45:12.290Z,11.70
2023-03-16T13:47:44.263Z,11.80
2023-03-16T13:50:14.018Z,11.90
2023-03-16T13:52:43.187Z,11.90
2023-03-16T13:55:17.909Z,12.00
2023-03-16T13:57:47.515Z,12.00
2023-03-16T14:00:20.160Z,12.00
2023-03-16T14:02:52.108Z,12.00
2023-03-16T14:05:24.504Z,12.00
2023-03-16T14:07:53.190Z,12.00
2023-03-16T14:10:22.212Z,12.10
2023-03-16T14:12:54.659Z,12.00
2023-03-16T14:15:27.296Z,12.10
2023-03-16T14:18:02.361Z,12.30
2023-03-16T14:20:33.132Z,12.30
2023-03-16T14:23:02.980Z,12.40
2023-03-16T14:25:31.449Z,12.40
2023-03-16T14:28:01.611Z,12.50
2023-03-16T14:30:32.081Z,12.60
2023-03-16T14:33:02.191Z,12.60
2023-03-16T14:35:32.251Z,12.60
2023-03-16T14:38:22.335Z,12.60
2023-03-16T14:40:55.064Z,12.70
2023-03-16T14:43:28.262Z,12.70
2023-03-16T14:45:58.469Z,12.80
2023-03-16T14:48:27.020Z,12.80
2023-03-16T14:50:57.409Z,12.90
2023-03-16T14:53:28.327Z,13.00
2023-03-16T14:55:56.761Z,13.10
2023-03-16T14:58:25.166Z,13.10
2023-03-16T15:00:54.667Z,13.20
2023-03-16T15:03:36.110Z,13.30
2023-03-16T15:06:04.528Z,13.30
2023-03-16T15:08:37.064Z,13.40
2023-03-16T15:11:07.791Z,13.40
2023-03-16T15:13:52.545Z,13.40
2023-03-16T15:16:21.950Z,13.40
2023-03-16T15:18:51.846Z,13.40
2023-03-16T15:21:23.321Z,13.40
2023-03-16T15:23:51.333Z,13.50
2023-03-16T15:26:27.168Z,13.50
2023-03-16T15:28:55.340Z,13.60
2023-03-16T15:31:23.610Z,13.70
2023-03-16T15:33:52.914Z,13.80
2023-03-16T15:36:24.220Z,14.10
2023-03-16T15:38:55.097Z,14.30
2023-03-16T15:41:24.125Z,14.20
2023-03-16T15:43:52.844Z,14.00
2023-03-16T15:46:20.865Z,13.90
2023-03-16T15:48:48.815Z,13.70
2023-03-16T15:51:22.410Z,13.50
2023-03-16T15:53:52.547Z,13.40
2023-03-16T15:56:29.063Z,13.20
2023-03-16T15:58:58.002Z,13.10
2023-03-16T16:01:27.294Z,13.00
2023-03-16T16:03:56.079Z,12.90
2023-03-16T16:06:26.551Z,12.80
2023-03-16T16:08:54.481Z,12.80
2023-03-16T16:11:26.345Z,12.70
2023-03-16T16:13:55.781Z,12.70
2023-03-16T16:16:23.730Z,12.70
2023-03-16T16:18:51.943Z,12.70
2023-03-16T16:21:23.372Z,12.70
2023-03-16T16:23:53.990Z,12.60
2023-03-16T16:26:46.968Z,12.60
2023-03-16T16:29:16.220Z,12.60
2023-03-16T16:31:44.751Z,12.50
2023-03-16T16:34:14.899Z,12.50
2023-03-16T16:36:43.023Z,12.50
2023-03-16T16:39:12.792Z,12.50
2023-03-16T16:41:41.804Z,12.40
2023-03-16T16:44:17.661Z,12.40
2023-03-16T16:46:45.620Z,12.40
2023-03-16T16:49:16.560Z,12.30
2023-03-16T16:51:44.548Z,12.30
2023-03-16T16:54:17.548Z,12.30
2023-03-16T16:56:46.371Z,12.30
2023-03-16T16:59:18.567Z,12.30
2023-03-16T17:01:48.184Z,12.30
2023-03-16T17:04:18.309Z,12.30
2023-03-16T17:06:48.018Z,12.30
2023-03-16T17:09:17.283Z,12.20
2023-03-16T17:11:46.208Z,12.20
2023-03-16T17:14:18.163Z,12.20
2023-03-16T17:16:47.553Z,12.20
2023-03-16T17:19:21.268Z,12.10
2023-03-16T17:21:49.805Z,12.10
2023-03-16T17:24:19.348Z,12.00
2023-03-16T17:26:48.926Z,12.00
2023-03-16T17:29:21.013Z,11.90
2023-03-16T17:31:50.480Z,11.90
2023-03-16T17:34:21.833Z,11.80
2023-03-16T17:36:49.871Z,11.80
2023-03-16T17:39:22.080Z,11.70
2023-03-16T17:41:55.770Z,11.70
2023-03-16T17:44:23.782Z,11.70
2023-03-16T17:46:51.673Z,11.60
2023-03-16T17:49:20.467Z,11.50
2023-03-16T17:51:49.044Z,11.50
2023-03-16T17:54:16.956Z,11.40
2023-03-16T17:56:48.040Z,11.30
2023-03-16T17:59:18.806Z,11.30
2023-03-16T18:01:48.120Z,11.20
2023-03-16T18:04:17.791Z,11.10
2023-03-16T18:06:47.384Z,11.10
2023-03-16T18:09:15.836Z,11.00
2023-03-16T18:11:47.719Z,11.00
2023-03-16T18:14:25.339Z,10.90
2023-03-16T18:16:54.475Z,10.80
2023-03-16T18:19:25.235Z,10.80
2023-03-16T18:21:53.939Z,10.80
2023-03-16T18:24:25.591Z,10.70
2023-03-16T18:26:55.241Z,10.70
2023-03-16T18:29:24.048Z,10.60
2023-03-16T18:31:55.080Z,10.60
2023-03-16T18:34:25.226Z,10.60
2023-03-16T18:36:54.974Z,10.60
2023-03-16T18:39:23.778Z,10.60
2023-03-16T18:41:52.615Z,10.50
2023-03-16T18:44:23.562Z,10.50
2023-03-16T18:46:54.828Z,10.50
2023-03-16T18:49:28.040Z,10.50
2023-03-16T18:51:56.245Z,10.40
2023-03-16T18:54:27.655Z,10.30
2023-03-16T18:56:55.873Z,10.30
2023-03-16T18:59:25.420Z,10.30
2023-03-16T19:01:54.097Z,10.30
2023-03-16T19:04:24.922Z,10.30
2023-03-16T19:06:54.972Z,10.20
2023-03-16T19:09:25.599Z,10.20
2023-03-16T19:11:53.572Z,10.20
2023-03-16T19:14:24.739Z,10.20
2023-03-16T19:16:53.040Z,10.20
2023-03-16T19:19:22.691Z,10.20
2023-03-16T19:21:52.658Z,10.20
2023-03-16T19:24:26.494Z,10.20
2023-03-16T19:26:55.042Z,10.20
2023-03-16T19:29:30.033Z,10.30
2023-03-16T19:31:58.973Z,10.30
2023-03-16T19:34:27.113Z,10.30
2023-03-16T19:36:55.021Z,10.30
2023-03-16T19:39:22.889Z,10.20
2023-03-16T19:41:55.828Z,10.20
2023-03-16T19:44:27.468Z,10.20
2023-03-16T19:46:56.074Z,10.10
2023-03-16T19:49:26.935Z,10.10
2023-03-16T19:51:56.559Z,10.10
2023-03-16T19:54:26.122Z,10.10
2023-03-16T19:56:55.355Z,10.00
2023-03-16T19:59:27.291Z,10.00
2023-03-16T20:01:55.208Z,10.00
2023-03-16T20:04:25.249Z,9.90
2023-03-16T20:06:54.050Z,9.90
2023-03-16T20:09:22.149Z,9.80
2023-03-16T20:11:50.733Z,9.80
2023-03-16T20:14:21.794Z,9.80
2023-03-16T20:16:51.681Z,9.70
2023-03-16T20:19:22.226Z,9.70
2023-03-16T20:21:50.417Z,9.60
2023-03-16T20:24:20.744Z,9.60
2023-03-16T20:26:51.334Z,9.60
2023-03-16T20:29:24.844Z,9.50
2023-03-16T20:31:54.450Z,9.50
2023-03-16T20:34:24.384Z,9.50
2023-03-16T20:36:52.252Z,9.50
2023-03-16T20:39:20.153Z,9.50
2023-03-16T20:41:48.726Z,9.40
2023-03-16T20:44:20.057Z,9.40
2023-03-16T20:46:48.072Z,9.40
2023-03-16T20:49:32.376Z,9.30
2023-03-16T20:52:00.360Z,9.30
2023-03-16T20:54:28.346Z,9.30
2023-03-16T20:56:56.285Z,9.30
2023-03-16T20:59:26.462Z,9.30
2023-03-16T21:01:55.617Z,9.30
2023-03-16T21:04:27.246Z,9.30
2023-03-16T21:06:56.784Z,9.30
2023-03-16T21:09:24.871Z,9.20
2023-03-16T21:11:53.130Z,9.20
2023-03-16T21:14:24.043Z,9.20
2023-03-16T21:16:52.469Z,9.20
2023-03-16T21:19:23.290Z,9.20
2023-03-16T21:21:53.013Z,9.20
2023-03-16T21:24:21.115Z,9.20
2023-03-16T21:26:49.190Z,9.10
2023-03-16T21:29:21.119Z,9.10
2023-03-16T21:31:49.472Z,9.10
2023-03-16T21:34:24.764Z,9.10
2023-03-16T21:36:55.109Z,9.10
2023-03-16T21:39:25.326Z,9.00
2023-03-16T21:41:53.668Z,9.00
2023-03-16T21:44:21.761Z,9.00
2023-03-16T21:46:49.767Z,9.00
2023-03-16T21:49:18.006Z,9.00
2023-03-16T21:51:45.894Z,9.00
2023-03-16T21:54:16.560Z,9.00
2023-03-16T21:56:45.074Z,9.00
2023-03-16T21:59:13.259Z,9.00
2023-03-16T22:01:58.222Z,9.00
2023-03-16T22:04:28.825Z,9.00
2023-03-16T22:06:56.843Z,9.00
2023-03-16T22:09:30.037Z,8.90
2023-03-16T22:11:58.123Z,8.90
2023-03-16T22:14:27.067Z,8.90
2023-03-16T22:16:55.438Z,8.90
2023-03-16T22:19:23.442Z,8.90
2023-03-16T22:21:51.608Z,8.90
2023-03-16T22:24:21.920Z,8.90
2023-03-16T22:26:51.379Z,8.80
2023-03-16T22:29:23.270Z,8.80
2023-03-16T22:31:53.757Z,8.80
2023-03-16T22:34:28.299Z,8.80
2023-03-16T22:36:57.495Z,8.80
2023-03-16T22:39:25.558Z,8.80
2023-03-16T22:41:55.050Z,8.80
2023-03-16T22:44:24.456Z,8.70
2023-03-16T22:46:52.358Z,8.70
2023-03-16T22:49:22.232Z,8.70
2023-03-16T22:51:52.551Z,8.70
2023-03-16T22:54:24.454Z,8.70
2023-03-16T22:56:54.073Z,8.70
2023-03-16T22:59:25.574Z,8.70
2023-03-16T23:01:53.559Z,8.70
2023-03-16T23:04:23.339Z,8.70
2023-03-16T23:06:54.526Z,8.70
2023-03-16T23:09:23.362Z,8.70
2023-03-16T23:11:54.581Z,8.70
2023-03-16T23:14:24.878Z,8.70
2023-03-16T23:16:53.599Z,8.70
2023-03-16T23:19:27.346Z,8.70
2023-03-16T23:21:57.414Z,8.70
2023-03-16T23:24:25.338Z,8.70
2023-03-16T23:26:56.046Z,8.70
2023-03-16T23:29:26.035Z,8.70
2023-03-16T23:31:54.668Z,8.70
2023-03-16T23:34:24.335Z,8.70
2023-03-16T23:36:53.011Z,8.70
2023-03-16T23:39:20.931Z,8.70
2023-03-16T23:41:50.505Z,8.70
2023-03-16T23:44:22.900Z,8.70
2023-03-16T23:46:51.701Z,8.70
2023-03-16T23:49:22.824Z,8.70
2023-03-16T23:51:52.818Z,8.70
2023-03-16T23:54:23.073Z,8.70
2023-03-16T23:56:51.945Z,8.70
2023-03-16T23:59:21.407Z,8.70
